Aeroporto :
LOGIN :

Iscrizione | Disclaimer

   EN    FR    IT 

 










Sommario :    VFR   VFR Marginale   IFR   IFR Intensivo   IFR Molto Intensivo
Visibilità : 
Base nubi : 
>= 8 km
>= 3000ft
5 / 8 km
1000 / 3000 ft
1500m / 5 km
500 / 1000 ft
800 / 1500m
200 / 500 ft
< 800m
< 200 ft
Simboli :   Temporali  Nebbia  Neve Forte  Precipitazioni Forti  Vento > 20 kt
SIGMETs :   Varie  Temporali  Ghiacco  Turbolenza  Onda orograficha  Ceneri Vulcaniche






- Altitudine del aeroporto : 202 ft
- Codice IATA : LGW


EGKK - London Gatwick

ULTIMO METAR :
  • 280620Z 25013KT CAVOK 03/01 Q0993

METARs OBSOLETI :
  • 280550Z 25012KT 9999 FEW018 03/01 Q0992
  • 280520Z 25011KT 9999 SCT018 03/02 Q0992
  • 280450Z 27013KT 9999 FEW015 04/02 Q0992
  • 280420Z 25014KT 9999 FEW018 04/02 Q0991
  • 280350Z 25010KT 9999 FEW014 04/03 Q0990

TAF TAF EGKK
Valido dal 28 a 06 ore il 29 a 12 ore UTC


280457Z 2806/2912 25012KT 9999 FEW025
PROB30
TEMPO 2811/2817 26015G25KT 8000 -SHRA



MetMap, La meteo Aeronautica in un colpo d'occhio ! - Copyright ORBIFLY Dicembre 2007 - Disclaimer

ORBIFLY MET'MAP TEAM :

Programmazione e sviluppo : Alexandra Zaïnal
Concezione : Baudouin d'Aumeries
Aiuto per la programmazione : Marc-Olivier Méhu
Supporto tecnico e logistico : Manuel Goepfert
Aiuto per la traduzione : Arnaldo La Scala

Contatto : metmap@orbifly.com




FONTI E CREDITI :

   NOAA